North Pole, Alaska
Current Conditions -  °F | °C
As of 2:13 AM on Friday 19 Dec 2014 (Local Time) from PAEI Reporting Station
Haze Haze  
Wind Chill: -11°   Ceiling: 200
Heat Index: -11°   Visibility: 1.2mi
Dew Point: -15°   Wind: 0mph
Humidity: 84%   Direction: NA
Pressure: 29.4"   Gusts: NA
Location:  64.75°N, 147.35°W
Report Text: PAEI 191113Z AUTO 00000KT 1 1/4SM R32/2400FT HZ OVC002 M24/M26 A2940 RMK AO2 $
Loading
Personal Weather Stations






























Interactive Weather Map New forecast layout! Learn more

10-Day Weather Forecast

Advertisements
Track Severe Weather on mobile